Time;durP1;ratioP1;P1;durP2;ratioP2;P2;SDS_P1;SDS_P2;PMS_P1;PMS_P2;Temp;Humidity;BMP_temperature;BMP_pressure;BME280_temperature;BME280_humidity;BME280_pressure;Samples;Min_cycle;Max_cycle;Signal;HPM_P1;HPM_P2
2021/09/24 00:00:15;;;;;;;3.50;1.88;;;15.40;65.40;;;;;;4945760;29;20039;-72
2021/09/24 00:02:41;;;;;;;4.28;1.75;;;15.30;65.40;;;;;;4928298;29;20039;-72
2021/09/24 00:05:08;;;;;;;3.60;1.48;;;15.30;65.40;;;;;;4946842;29;20518;-73
2021/09/24 00:07:34;;;;;;;3.33;1.80;;;15.40;65.40;;;;;;4946557;29;20392;-72
2021/09/24 00:10:00;;;;;;;2.58;1.40;;;15.30;65.40;;;;;;4946445;29;20033;-73
2021/09/24 00:12:26;;;;;;;3.28;1.63;;;15.30;65.40;;;;;;4946770;29;20031;-72
2021/09/24 00:14:51;;;;;;;2.28;1.45;;;15.30;65.40;;;;;;4945572;29;20110;-72
2021/09/24 00:17:17;;;;;;;2.05;1.42;;;15.20;65.30;;;;;;4945456;29;20019;-72
2021/09/24 00:19:43;;;;;;;1.83;1.40;;;15.20;65.80;;;;;;4946175;29;20034;-72
2021/09/24 00:22:08;;;;;;;2.13;1.15;;;15.20;65.90;;;;;;4946802;29;20027;-72
2021/09/24 00:24:34;;;;;;;2.80;1.25;;;15.20;65.70;;;;;;4946780;29;20038;-72
2021/09/24 00:27:00;;;;;;;4.28;1.58;;;15.30;66.10;;;;;;4947494;29;20031;-72
2021/09/24 00:29:25;;;;;;;1.70;1.20;;;15.30;65.80;;;;;;4945103;29;20031;-73
2021/09/24 00:31:51;;;;;;;2.03;1.08;;;15.20;65.80;;;;;;4946076;29;20111;-73
2021/09/24 00:34:17;;;;;;;1.58;0.95;;;15.30;66.00;;;;;;4946383;29;20123;-72
2021/09/24 00:36:42;;;;;;;2.65;1.20;;;15.20;65.90;;;;;;4946292;29;20043;-72
2021/09/24 00:39:08;;;;;;;3.47;1.13;;;15.20;65.70;;;;;;4943995;29;20102;-72
2021/09/24 00:41:34;;;;;;;2.17;1.15;;;15.20;65.60;;;;;;4943845;29;20447;-72
2021/09/24 00:44:02;;;;;;;1.73;1.30;;;15.20;65.80;;;;;;4945917;29;20016;-72
2021/09/24 00:46:27;;;;;;;2.20;1.20;;;15.20;65.80;;;;;;4945470;29;20407;-72
2021/09/24 00:48:53;;;;;;;2.90;1.27;;;15.10;65.50;;;;;;4945721;29;20031;-72
2021/09/24 00:51:18;;;;;;;2.40;1.42;;;15.10;65.90;;;;;;4945549;29;20043;-72
2021/09/24 00:53:44;;;;;;;3.78;1.30;;;15.10;66.20;;;;;;4943982;29;20528;-72
2021/09/24 00:56:10;;;;;;;3.65;1.40;;;15.20;66.50;;;;;;4949143;29;20027;-72
2021/09/24 00:58:35;;;;;;;1.77;1.20;;;15.20;66.60;;;;;;4945614;29;20035;-72
2021/09/24 01:01:01;;;;;;;2.15;1.20;;;15.20;66.20;;;;;;4944941;29;20035;-72
2021/09/24 01:03:27;;;;;;;2.58;1.20;;;15.30;66.40;;;;;;4946018;29;20023;-72
2021/09/24 01:05:52;;;;;;;2.15;1.20;;;15.40;66.50;;;;;;4944756;29;20039;-72
2021/09/24 01:08:18;;;;;;;2.20;1.20;;;15.40;66.10;;;;;;4944977;29;20079;-72
2021/09/24 01:10:44;;;;;;;1.70;1.13;;;15.50;66.20;;;;;;4945498;29;20039;-72
2021/09/24 01:13:10;;;;;;;1.67;1.17;;;15.50;65.80;;;;;;4945669;29;20032;-72
2021/09/24 01:15:35;;;;;;;2.88;1.38;;;15.50;66.10;;;;;;4945426;29;20054;-72
2021/09/24 01:18:01;;;;;;;1.60;1.30;;;15.50;66.10;;;;;;4944306;29;20636;-73
2021/09/24 01:20:27;;;;;;;2.85;1.50;;;15.40;65.70;;;;;;4945995;28;20126;-72
2021/09/24 01:22:52;;;;;;;1.92;1.30;;;15.40;65.50;;;;;;4948775;29;20122;-72
2021/09/24 01:25:21;;;;;;;1.92;1.35;;;15.40;65.90;;;;;;4951089;29;20028;-72
2021/09/24 01:27:48;;;;;;;1.55;1.40;;;15.40;66.00;;;;;;4948582;29;20119;-72
2021/09/24 01:30:15;;;;;;;2.58;1.20;;;15.40;66.20;;;;;;4952928;29;20025;-72
2021/09/24 01:32:42;;;;;;;2.28;1.20;;;15.50;66.10;;;;;;4953248;29;20075;-72
2021/09/24 01:35:08;;;;;;;2.58;1.63;;;15.50;66.00;;;;;;4951358;29;20056;-73
2021/09/24 01:37:35;;;;;;;1.90;1.20;;;15.50;66.00;;;;;;4952973;29;20035;-72
2021/09/24 01:40:01;;;;;;;3.20;1.23;;;15.40;65.90;;;;;;4952719;29;20066;-73
2021/09/24 01:42:27;;;;;;;2.17;1.50;;;15.30;65.70;;;;;;4952424;29;20066;-72
2021/09/24 01:44:52;;;;;;;2.42;1.42;;;15.30;65.70;;;;;;4937003;29;20027;-72
2021/09/24 01:47:18;;;;;;;3.15;1.73;;;15.20;65.20;;;;;;4953208;29;20512;-72
2021/09/24 01:49:44;;;;;;;5.65;1.88;;;15.10;65.80;;;;;;4950937;29;20059;-72
2021/09/24 01:52:10;;;;;;;3.95;2.10;;;15.00;65.90;;;;;;4952899;29;20050;-72
2021/09/24 01:54:36;;;;;;;4.78;3.08;;;15.00;66.50;;;;;;4952770;29;20117;-72
2021/09/24 01:57:02;;;;;;;4.90;3.00;;;14.90;66.20;;;;;;4956247;28;20030;-72
2021/09/24 01:59:27;;;;;;;6.10;3.38;;;14.70;66.60;;;;;;4956827;29;20043;-71
2021/09/24 02:01:53;;;;;;;5.95;3.45;;;14.70;67.00;;;;;;4956718;29;20020;-72
2021/09/24 02:04:19;;;;;;;4.97;3.22;;;14.60;66.70;;;;;;4954140;29;20035;-72
2021/09/24 02:06:45;;;;;;;4.93;3.42;;;14.50;68.30;;;;;;4956667;29;20089;-72
2021/09/24 02:09:11;;;;;;;4.78;3.78;;;14.50;67.80;;;;;;4956471;29;20027;-72
2021/09/24 02:11:37;;;;;;;6.88;4.03;;;14.60;67.20;;;;;;4956769;29;20031;-72
2021/09/24 02:14:03;;;;;;;5.15;3.85;;;14.60;67.40;;;;;;4956665;29;20062;-72
2021/09/24 02:16:29;;;;;;;5.50;3.58;;;14.60;67.40;;;;;;4956131;29;20042;-72
2021/09/24 02:18:55;;;;;;;5.50;3.97;;;14.60;67.20;;;;;;4956278;29;20027;-72
2021/09/24 02:21:21;;;;;;;6.43;4.00;;;14.70;67.50;;;;;;4956490;29;20050;-72
2021/09/24 02:23:46;;;;;;;4.80;3.53;;;14.80;67.20;;;;;;4954379;29;20050;-72
2021/09/24 02:26:12;;;;;;;6.30;4.18;;;14.70;67.20;;;;;;4956239;29;20058;-72
2021/09/24 02:28:38;;;;;;;5.15;3.90;;;14.70;67.20;;;;;;4953667;29;20110;-72
2021/09/24 02:31:09;;;;;;;4.93;3.67;;;14.70;67.10;;;;;;4953269;29;20078;-72
2021/09/24 02:33:38;;;;;;;4.88;3.90;;;14.60;67.10;;;;;;4956504;29;20516;-72
2021/09/24 02:36:05;;;;;;;6.43;3.75;;;14.70;67.30;;;;;;4939696;29;20059;-72
2021/09/24 02:38:31;;;;;;;4.18;3.50;;;14.70;67.40;;;;;;4957016;29;20031;-72
2021/09/24 02:40:58;;;;;;;5.07;3.63;;;14.70;67.20;;;;;;4955591;29;20067;-72
2021/09/24 02:43:23;;;;;;;6.32;4.25;;;14.80;67.60;;;;;;4956654;29;20393;-72
2021/09/24 02:45:49;;;;;;;5.72;3.92;;;14.80;67.10;;;;;;4956278;29;20038;-72
2021/09/24 02:48:14;;;;;;;7.05;4.47;;;14.80;67.20;;;;;;4956635;29;20034;-72
2021/09/24 02:50:40;;;;;;;6.45;4.03;;;14.80;67.20;;;;;;4956544;29;20025;-73
2021/09/24 02:53:06;;;;;;;5.18;4.13;;;14.80;66.80;;;;;;4956982;29;20035;-72
2021/09/24 02:55:31;;;;;;;5.20;3.80;;;14.70;67.20;;;;;;4956030;29;20035;-72
2021/09/24 02:57:57;;;;;;;6.60;4.15;;;14.70;67.10;;;;;;4956394;29;20035;-72
2021/09/24 03:00:24;;;;;;;5.78;4.10;;;14.60;67.50;;;;;;4956285;29;20094;-72
2021/09/24 03:02:49;;;;;;;5.80;4.35;;;14.60;67.70;;;;;;4956383;29;20020;-72
2021/09/24 03:05:15;;;;;;;6.40;4.22;;;14.60;67.80;;;;;;4956741;29;20154;-72
2021/09/24 03:07:41;;;;;;;5.82;4.45;;;14.60;68.00;;;;;;4955186;28;20090;-72
2021/09/24 03:10:08;;;;;;;7.15;3.80;;;14.70;68.00;;;;;;4955905;29;20058;-72
2021/09/24 03:12:33;;;;;;;5.75;3.58;;;14.70;67.90;;;;;;4957920;29;20114;-72
2021/09/24 03:14:59;;;;;;;8.05;4.45;;;14.70;67.70;;;;;;4952075;29;20158;-73
2021/09/24 03:17:25;;;;;;;5.22;3.80;;;14.80;68.20;;;;;;4958294;29;20400;-73
2021/09/24 03:19:50;;;;;;;6.07;3.88;;;14.80;67.70;;;;;;4955942;29;20039;-72
2021/09/24 03:22:16;;;;;;;6.35;3.90;;;14.80;68.00;;;;;;4938611;29;20034;-72
2021/09/24 03:24:42;;;;;;;5.82;3.90;;;14.80;67.90;;;;;;4955482;29;20036;-72
2021/09/24 03:27:08;;;;;;;5.10;3.83;;;14.80;67.90;;;;;;4956020;29;20464;-72
2021/09/24 03:29:33;;;;;;;5.55;3.78;;;14.80;69.00;;;;;;4955958;29;20114;-72
2021/09/24 03:31:59;;;;;;;4.65;3.47;;;14.80;68.00;;;;;;4956196;29;20106;-72
2021/09/24 03:34:25;;;;;;;4.95;3.90;;;14.90;68.10;;;;;;4955609;29;20122;-72
2021/09/24 03:36:51;;;;;;;6.95;4.10;;;14.90;67.90;;;;;;4938379;29;20090;-72
2021/09/24 03:39:16;;;;;;;5.05;3.45;;;14.90;67.90;;;;;;4949024;29;20094;-72
2021/09/24 03:41:43;;;;;;;4.97;3.67;;;14.80;67.60;;;;;;4955664;29;20086;-72
2021/09/24 03:44:09;;;;;;;5.25;3.67;;;14.80;68.00;;;;;;4955963;29;20094;-72
2021/09/24 03:46:36;;;;;;;5.95;3.85;;;14.80;68.00;;;;;;4955490;29;20118;-72
2021/09/24 03:49:02;;;;;;;7.30;3.97;;;14.90;67.90;;;;;;4955352;29;20051;-72
2021/09/24 03:51:28;;;;;;;5.35;3.85;;;14.90;67.90;;;;;;4955522;29;20040;-71
2021/09/24 03:53:54;;;;;;;5.90;3.80;;;14.90;68.00;;;;;;4955251;29;20029;-72
2021/09/24 03:56:19;;;;;;;6.90;3.33;;;14.90;68.20;;;;;;4955804;29;20023;-72
2021/09/24 03:58:45;;;;;;;4.35;3.50;;;14.90;68.00;;;;;;4955080;29;20084;-72
2021/09/24 04:01:10;;;;;;;4.20;3.40;;;14.90;68.20;;;;;;4955168;29;20027;-72
2021/09/24 04:03:37;;;;;;;5.32;3.75;;;14.90;68.10;;;;;;4954143;29;20024;-72
2021/09/24 04:06:02;;;;;;;5.10;3.38;;;14.90;68.00;;;;;;4954553;29;20082;-72
2021/09/24 04:08:28;;;;;;;6.63;3.88;;;14.80;68.20;;;;;;4954671;29;20027;-73
2021/09/24 04:10:53;;;;;;;6.80;3.47;;;14.80;68.20;;;;;;4954485;29;20051;-72
2021/09/24 04:13:21;;;;;;;4.55;3.05;;;14.70;68.20;;;;;;4954350;29;20117;-72
2021/09/24 04:15:47;;;;;;;6.65;3.67;;;14.70;68.40;;;;;;4954291;29;20024;-72
2021/09/24 04:18:13;;;;;;;4.75;3.60;;;14.70;68.00;;;;;;4954451;28;20035;-72
2021/09/24 04:20:39;;;;;;;5.65;3.80;;;14.70;68.50;;;;;;4954411;29;20086;-74
2021/09/24 04:23:05;;;;;;;6.35;3.88;;;14.60;68.20;;;;;;4954431;29;20492;-72
2021/09/24 04:25:30;;;;;;;5.30;3.50;;;14.60;68.40;;;;;;4954109;29;20031;-72
2021/09/24 04:27:56;;;;;;;5.30;3.70;;;14.50;68.40;;;;;;4954102;29;20031;-72
2021/09/24 04:30:22;;;;;;;5.82;3.40;;;14.40;68.40;;;;;;4954335;29;20019;-73
2021/09/24 04:32:48;;;;;;;4.68;3.70;;;14.40;68.80;;;;;;4953165;29;20027;-72
2021/09/24 04:35:15;;;;;;;6.18;3.72;;;14.40;68.60;;;;;;4949301;29;20035;-72
2021/09/24 04:37:41;;;;;;;4.75;2.97;;;14.30;68.70;;;;;;4952365;29;20042;-72
2021/09/24 04:40:07;;;;;;;4.18;2.90;;;14.30;68.60;;;;;;4954218;29;20039;-72
2021/09/24 04:42:33;;;;;;;5.47;3.10;;;14.20;68.90;;;;;;4952220;29;20122;-72
2021/09/24 04:44:59;;;;;;;5.30;2.72;;;14.20;68.60;;;;;;4947889;29;20067;-72
2021/09/24 04:47:25;;;;;;;3.42;2.67;;;14.30;68.90;;;;;;4954506;29;20023;-72
2021/09/24 04:49:51;;;;;;;3.17;2.42;;;14.20;68.80;;;;;;4953851;29;20034;-72
2021/09/24 04:52:18;;;;;;;3.47;2.70;;;14.10;68.50;;;;;;4953795;29;20493;-72
2021/09/24 04:54:44;;;;;;;5.38;2.83;;;14.00;68.50;;;;;;4953792;29;20035;-72
2021/09/24 04:57:09;;;;;;;5.53;2.85;;;13.90;69.00;;;;;;4953815;29;20027;-72
2021/09/24 04:59:35;;;;;;;5.85;2.72;;;13.90;69.40;;;;;;4953803;29;20094;-72
2021/09/24 05:02:01;;;;;;;4.95;3.05;;;13.90;69.50;;;;;;4954024;29;20029;-72
2021/09/24 05:04:26;;;;;;;3.10;2.65;;;13.90;69.20;;;;;;4953871;29;20509;-72
2021/09/24 05:06:52;;;;;;;3.75;2.75;;;13.90;69.50;;;;;;4953073;29;20078;-72
2021/09/24 05:09:18;;;;;;;4.05;3.05;;;13.90;69.50;;;;;;4953648;29;20408;-72
2021/09/24 05:11:43;;;;;;;5.07;2.75;;;13.80;69.30;;;;;;4953661;29;20038;-73
2021/09/24 05:14:09;;;;;;;3.58;2.72;;;13.80;69.40;;;;;;4954152;29;20031;-72
2021/09/24 05:16:35;;;;;;;3.95;2.90;;;13.80;69.40;;;;;;4953476;29;20082;-72
2021/09/24 05:19:00;;;;;;;3.45;2.80;;;13.80;69.40;;;;;;4953392;29;20103;-72
2021/09/24 05:21:26;;;;;;;3.25;2.55;;;13.80;69.60;;;;;;4953294;29;20408;-71
2021/09/24 05:23:52;;;;;;;2.80;2.42;;;13.70;69.50;;;;;;4936507;29;20019;-72
2021/09/24 05:26:17;;;;;;;4.43;2.88;;;13.70;69.30;;;;;;4953649;29;20455;-72
2021/09/24 05:28:44;;;;;;;3.45;2.55;;;13.70;69.50;;;;;;4953377;29;20031;-70
2021/09/24 05:31:10;;;;;;;4.15;2.95;;;13.70;69.50;;;;;;4952484;28;20400;-70
2021/09/24 05:33:35;;;;;;;4.28;2.67;;;13.60;69.60;;;;;;4953445;29;20047;-71
2021/09/24 05:36:01;;;;;;;6.20;3.00;;;13.60;69.60;;;;;;4952961;29;20034;-70
2021/09/24 05:38:27;;;;;;;4.50;3.20;;;13.70;69.80;;;;;;4953268;29;20058;-70
2021/09/24 05:40:52;;;;;;;7.65;2.97;;;13.70;69.90;;;;;;4952982;29;20564;-69
2021/09/24 05:43:18;;;;;;;3.70;2.90;;;13.80;69.70;;;;;;4953089;29;20015;-69
2021/09/24 05:45:44;;;;;;;4.28;3.13;;;13.80;69.50;;;;;;4952994;29;20035;-70
2021/09/24 05:48:09;;;;;;;5.53;3.58;;;13.80;69.80;;;;;;4953054;29;20027;-72
2021/09/24 05:50:35;;;;;;;7.45;3.75;;;13.70;69.20;;;;;;4952692;29;20070;-72
2021/09/24 05:53:02;;;;;;;6.35;3.67;;;13.70;69.60;;;;;;4953722;29;20114;-73
2021/09/24 05:55:28;;;;;;;5.05;4.00;;;13.70;69.50;;;;;;4953152;29;20057;-71
2021/09/24 05:57:54;;;;;;;7.00;4.00;;;13.70;69.70;;;;;;4952925;29;20106;-72
2021/09/24 06:00:21;;;;;;;4.78;3.00;;;13.80;69.90;;;;;;4952935;29;20134;-72
2021/09/24 06:02:49;;;;;;;5.10;3.65;;;13.80;69.80;;;;;;4952712;29;20138;-72
2021/09/24 06:05:15;;;;;;;6.10;3.85;;;13.90;69.60;;;;;;4953358;29;20031;-72
2021/09/24 06:07:44;;;;;;;6.97;3.95;;;14.00;69.60;;;;;;4948478;29;20051;-72
2021/09/24 06:10:11;;;;;;;8.38;4.30;;;14.10;69.40;;;;;;4943322;29;20046;-72
2021/09/24 06:12:37;;;;;;;6.07;4.03;;;14.00;68.80;;;;;;4952802;29;20023;-72
2021/09/24 06:15:04;;;;;;;7.00;3.67;;;14.00;68.80;;;;;;4952680;29;20051;-72
2021/09/24 06:17:30;;;;;;;5.85;3.97;;;14.00;69.40;;;;;;4953047;29;20034;-72
2021/09/24 06:19:57;;;;;;;7.22;3.70;;;14.00;69.40;;;;;;4931933;29;20521;-72
2021/09/24 06:22:24;;;;;;;7.05;3.85;;;14.00;69.80;;;;;;4949646;29;20027;-73
2021/09/24 06:24:49;;;;;;;5.75;3.85;;;14.00;69.90;;;;;;4943638;29;20055;-71
2021/09/24 06:27:15;;;;;;;5.63;3.80;;;14.10;69.80;;;;;;4944600;29;20058;-72
2021/09/24 06:29:46;;;;;;;5.40;3.83;;;14.20;70.60;;;;;;4944544;29;20040;-72
2021/09/24 06:32:13;;;;;;;5.18;3.70;;;14.30;69.40;;;;;;4940030;29;20032;-72
2021/09/24 06:34:39;;;;;;;4.18;3.20;;;14.30;69.30;;;;;;4950407;29;20137;-72
2021/09/24 06:37:05;;;;;;;11.52;3.40;;;14.30;69.60;;;;;;4952528;29;20037;-72
2021/09/24 06:39:32;;;;;;;4.68;3.35;;;14.40;69.40;;;;;;4952795;29;20031;-71
2021/09/24 06:41:57;;;;;;;5.15;3.50;;;14.30;69.00;;;;;;4953869;28;20559;-72
2021/09/24 06:44:23;;;;;;;4.93;2.78;;;14.30;69.30;;;;;;4942480;29;20027;-71
2021/09/24 06:46:49;;;;;;;4.38;2.95;;;14.40;70.00;;;;;;4946186;29;20180;-71
2021/09/24 06:49:15;;;;;;;4.65;3.05;;;14.50;70.00;;;;;;4948548;29;20588;-72
2021/09/24 06:51:40;;;;;;;5.13;3.33;;;14.50;69.50;;;;;;4948675;29;20015;-72
2021/09/24 06:54:06;;;;;;;3.83;3.25;;;14.60;69.60;;;;;;4940704;29;20419;-72
2021/09/24 06:56:32;;;;;;;4.80;3.10;;;14.70;69.50;;;;;;4953575;29;20034;-72
2021/09/24 06:59:00;;;;;;;4.25;3.03;;;14.70;69.10;;;;;;4955920;29;20042;-72
2021/09/24 07:01:26;;;;;;;4.13;3.60;;;14.80;69.50;;;;;;4951565;29;20043;-72
2021/09/24 07:03:52;;;;;;;4.53;3.47;;;14.80;69.00;;;;;;4955454;29;20019;-72
2021/09/24 07:06:18;;;;;;;4.63;3.33;;;14.90;69.10;;;;;;4956040;29;20031;-72
2021/09/24 07:08:43;;;;;;;4.78;3.30;;;14.90;69.00;;;;;;4949299;29;20503;-72
2021/09/24 07:11:10;;;;;;;4.40;3.53;;;15.00;68.80;;;;;;4953861;29;20019;-73
2021/09/24 07:13:35;;;;;;;6.45;3.50;;;15.00;68.90;;;;;;4955245;29;20027;-72
2021/09/24 07:16:02;;;;;;;5.45;3.70;;;15.10;69.00;;;;;;4955955;29;20378;-73
2021/09/24 07:18:28;;;;;;;4.97;3.78;;;15.10;69.10;;;;;;4958149;29;20039;-74
2021/09/24 07:20:54;;;;;;;4.63;3.00;;;15.20;68.90;;;;;;4958229;29;20046;-73
2021/09/24 07:23:20;;;;;;;6.10;3.05;;;15.30;69.00;;;;;;4957254;29;20027;-73
2021/09/24 07:25:47;;;;;;;5.40;3.65;;;15.30;68.90;;;;;;4955259;29;20401;-73
2021/09/24 07:28:12;;;;;;;4.57;3.17;;;15.40;68.60;;;;;;4955540;29;20069;-73
2021/09/24 07:30:38;;;;;;;5.72;3.17;;;15.40;68.90;;;;;;4955196;29;20504;-69
2021/09/24 07:33:04;;;;;;;4.28;3.53;;;15.50;68.80;;;;;;4955528;29;20645;-73
2021/09/24 07:35:29;;;;;;;5.28;3.70;;;15.60;69.00;;;;;;4955505;29;20035;-72
2021/09/24 07:37:55;;;;;;;3.80;3.50;;;15.70;68.90;;;;;;4955557;29;20027;-73
2021/09/24 07:40:20;;;;;;;4.10;3.15;;;15.80;69.10;;;;;;4955295;29;20066;-73
2021/09/24 07:42:46;;;;;;;4.35;3.38;;;15.90;68.90;;;;;;4955079;29;20035;-72
2021/09/24 07:45:12;;;;;;;3.92;3.50;;;16.00;68.60;;;;;;4953252;29;20035;-72
2021/09/24 07:47:38;;;;;;;5.30;3.00;;;16.10;68.20;;;;;;4954956;29;20035;-72
2021/09/24 07:50:04;;;;;;;5.78;3.65;;;16.20;68.30;;;;;;4952439;29;20070;-72
2021/09/24 07:52:31;;;;;;;5.97;3.15;;;16.30;68.10;;;;;;4950899;29;20054;-72
2021/09/24 07:54:58;;;;;;;3.95;3.30;;;16.30;67.90;;;;;;4952788;28;20456;-73
2021/09/24 07:57:23;;;;;;;4.15;3.35;;;16.40;67.90;;;;;;4952128;29;20035;-73
2021/09/24 07:59:49;;;;;;;4.63;3.58;;;16.50;68.30;;;;;;4937824;28;20524;-73
2021/09/24 08:02:15;;;;;;;6.38;3.30;;;16.50;68.00;;;;;;4955286;29;20464;-73
2021/09/24 08:04:41;;;;;;;4.45;3.22;;;16.70;68.10;;;;;;4951830;28;20086;-73
2021/09/24 08:07:08;;;;;;;3.30;2.97;;;16.70;67.60;;;;;;4951520;29;20039;-73
2021/09/24 08:09:34;;;;;;;4.22;3.10;;;16.70;67.80;;;;;;4947828;29;20043;-72
2021/09/24 08:11:59;;;;;;;3.88;3.13;;;16.80;67.70;;;;;;4950012;29;20050;-73
2021/09/24 08:14:25;;;;;;;4.45;3.55;;;16.80;67.60;;;;;;4954761;29;20061;-73
2021/09/24 08:16:51;;;;;;;5.68;3.78;;;16.80;67.20;;;;;;4951659;29;20031;-72
2021/09/24 08:19:17;;;;;;;5.55;3.60;;;16.70;67.40;;;;;;4951695;29;20031;-73
2021/09/24 08:21:42;;;;;;;5.07;3.38;;;16.70;67.90;;;;;;4952200;29;20046;-73
2021/09/24 08:24:08;;;;;;;7.70;3.35;;;16.90;68.00;;;;;;4951125;28;20023;-73
2021/09/24 08:26:33;;;;;;;4.35;2.95;;;17.10;68.00;;;;;;4954658;28;20053;-73
2021/09/24 08:28:59;;;;;;;5.93;3.33;;;17.20;67.80;;;;;;4952609;29;20028;-72
2021/09/24 08:31:25;;;;;;;7.97;3.22;;;17.40;67.40;;;;;;4951878;29;20031;-73
2021/09/24 08:33:50;;;;;;;5.25;2.92;;;17.60;67.70;;;;;;4951781;29;20058;-73
2021/09/24 08:36:17;;;;;;;3.00;2.63;;;17.90;67.50;;;;;;4951751;29;20035;-72
2021/09/24 08:38:43;;;;;;;5.30;2.42;;;18.20;66.90;;;;;;4953417;29;20023;-73
2021/09/24 08:41:09;;;;;;;4.28;2.13;;;18.50;66.70;;;;;;4954915;29;20492;-73
2021/09/24 08:43:35;;;;;;;2.45;1.20;;;18.80;66.10;;;;;;4952824;29;20046;-73
2021/09/24 08:46:01;;;;;;;1.80;1.10;;;19.10;64.90;;;;;;4951538;28;20031;-73
2021/09/24 08:48:28;;;;;;;1.92;1.00;;;19.60;65.10;;;;;;4951692;29;20035;-73
2021/09/24 08:50:55;;;;;;;1.38;0.90;;;20.40;64.90;;;;;;4953099;29;20047;-73
2021/09/24 08:53:24;;;;;;;1.00;0.60;;;21.00;63.00;;;;;;4955026;29;20027;-73
2021/09/24 08:55:50;;;;;;;2.15;0.90;;;21.50;61.90;;;;;;4952820;29;20039;-73
2021/09/24 08:58:16;;;;;;;1.88;0.98;;;21.60;59.00;;;;;;4952473;29;20034;-73
2021/09/24 09:00:43;;;;;;;1.92;0.88;;;21.60;58.80;;;;;;4947623;29;20492;-73
2021/09/24 09:03:20;;;;;;;1.20;0.80;;;21.30;57.60;;;;;;4948926;29;20031;-73
2021/09/24 09:05:53;;;;;;;1.23;0.77;;;21.40;59.40;;;;;;4945451;28;20051;-73
2021/09/24 09:08:23;;;;;;;2.50;0.90;;;22.00;60.10;;;;;;4954229;28;20030;-73
2021/09/24 09:11:02;;;;;;;2.03;0.70;;;22.60;59.60;;;;;;4934451;29;20055;-72
2021/09/24 09:13:40;;;;;;;1.05;0.68;;;23.10;58.30;;;;;;4950420;29;20031;-73
2021/09/24 09:16:11;;;;;;;1.27;0.70;;;23.70;56.80;;;;;;4951754;29;20019;-73
2021/09/24 09:18:39;;;;;;;1.23;0.80;;;24.30;54.80;;;;;;4949014;29;20043;-73
2021/09/24 09:21:08;;;;;;;1.42;0.70;;;24.90;53.80;;;;;;4944336;29;20127;-73
2021/09/24 09:23:36;;;;;;;2.15;0.68;;;25.40;53.20;;;;;;4945745;29;20111;-74
2021/09/24 09:26:05;;;;;;;1.45;0.75;;;25.80;51.40;;;;;;4953131;29;20043;-73
2021/09/24 09:28:34;;;;;;;4.50;1.40;;;26.10;51.20;;;;;;4949793;29;20115;-73
2021/09/24 09:31:02;;;;;;;2.55;1.15;;;26.40;49.10;;;;;;4942099;29;20023;-73
2021/09/24 09:33:28;;;;;;;1.48;1.00;;;26.90;51.00;;;;;;4944669;29;20508;-74
2021/09/24 09:36:00;;;;;;;1.98;1.30;;;27.40;49.60;;;;;;4943978;29;20046;-74
2021/09/24 09:38:32;;;;;;;2.70;1.27;;;27.40;48.40;;;;;;4946999;29;20029;-74
2021/09/24 09:41:10;;;;;;;1.40;1.03;;;26.60;46.30;;;;;;4929843;29;20067;-74
2021/09/24 09:43:38;;;;;;;3.92;1.45;;;26.00;47.10;;;;;;4946131;29;20037;-73
2021/09/24 09:46:09;;;;;;;1.48;1.05;;;25.10;46.50;;;;;;4950374;29;20058;-73
2021/09/24 09:48:35;;;;;;;1.85;1.20;;;24.60;48.00;;;;;;4952387;28;20031;-73
2021/09/24 09:51:01;;;;;;;2.10;1.02;;;24.00;48.70;;;;;;4950846;29;20516;-73
2021/09/24 09:53:28;;;;;;;1.52;1.13;;;24.20;50.10;;;;;;4935980;29;20024;-74
2021/09/24 09:55:54;;;;;;;2.30;0.90;;;24.80;50.10;;;;;;4945040;29;20035;-74
2021/09/24 09:58:23;;;;;;;2.03;0.80;;;25.40;49.70;;;;;;4943800;29;20431;-73
2021/09/24 10:01:03;;;;;;;1.50;0.90;;;25.80;51.50;;;;;;4944870;29;20056;-73
2021/09/24 10:03:36;;;;;;;1.77;1.00;;;27.50;51.20;;;;;;4949935;29;20031;-73
2021/09/24 10:06:03;;;;;;;2.47;1.10;;;28.10;45.80;;;;;;4936142;29;20046;-74
2021/09/24 10:08:33;;;;;;;1.35;0.90;;;27.50;44.70;;;;;;4947371;29;20027;-74
2021/09/24 10:11:06;;;;;;;2.42;0.90;;;27.00;43.20;;;;;;4945552;29;20082;-74
2021/09/24 10:13:34;;;;;;;;;;;25.70;42.90;;;;;;4947965;29;20039;-73
2021/09/24 10:16:00;;;;;;;1.65;0.75;;;24.70;45.60;;;;;;4929968;28;19914;-74
2021/09/24 10:18:26;;;;;;;2.38;1.02;;;24.30;47.60;;;;;;4947775;29;20031;-72
2021/09/24 10:20:52;;;;;;;1.08;0.85;;;24.40;48.50;;;;;;4948325;29;20047;-72
2021/09/24 10:23:18;;;;;;;1.58;0.90;;;24.40;48.30;;;;;;4949981;29;20062;-72
2021/09/24 10:25:48;;;;;;;1.48;0.73;;;24.40;48.80;;;;;;4950328;29;20062;-73
2021/09/24 10:28:15;;;;;;;1.75;0.90;;;24.30;48.20;;;;;;4949543;29;20024;-73
2021/09/24 10:30:41;;;;;;;1.65;0.85;;;24.20;47.10;;;;;;4950247;29;20456;-73
2021/09/24 10:33:11;;;;;;;1.80;0.80;;;24.00;47.60;;;;;;4947036;29;20106;-75
2021/09/24 10:35:54;;;;;;;3.08;1.02;;;23.90;48.10;;;;;;4948374;29;20057;-74
2021/09/24 10:38:25;;;;;;;2.67;0.88;;;23.70;49.00;;;;;;4949278;29;20110;-76
2021/09/24 10:41:05;;;;;;;2.65;0.85;;;23.70;50.10;;;;;;4949454;29;20661;-73
2021/09/24 10:43:44;;;;;;;2.88;0.85;;;24.10;50.40;;;;;;4950658;29;20031;-74
2021/09/24 10:46:24;;;;;;;3.53;0.80;;;24.40;49.00;;;;;;4949302;29;20106;-73
2021/09/24 10:49:12;;;;;;;1.55;0.85;;;24.60;49.70;;;;;;4948723;29;20039;-72
2021/09/24 10:51:44;;;;;;;3.00;0.98;;;24.90;49.50;;;;;;4955437;29;20399;-72
2021/09/24 10:54:20;;;;;;;2.67;0.82;;;24.80;46.60;;;;;;4952702;29;20115;-71
2021/09/24 10:57:06;;;;;;;2.50;0.93;;;24.50;47.10;;;;;;4955929;29;20032;-71
2021/09/24 10:59:35;;;;;;;1.85;0.80;;;24.60;47.60;;;;;;4951711;29;20036;-70
2021/09/24 11:02:34;;;;;;;1.55;0.90;;;24.60;47.50;;;;;;4956069;29;20042;-72
2021/09/24 11:05:00;;;;;;;2.30;1.00;;;24.70;48.50;;;;;;4955633;29;20034;-72
2021/09/24 11:07:33;;;;;;;2.83;0.98;;;25.00;47.30;;;;;;4955071;29;20027;-72
2021/09/24 11:10:00;;;;;;;1.77;0.80;;;25.10;46.70;;;;;;4954983;28;20027;-71
2021/09/24 11:12:26;;;;;;;1.25;0.80;;;25.40;47.50;;;;;;4953574;29;20074;-71
2021/09/24 11:15:05;;;;;;;1.65;1.05;;;25.70;46.80;;;;;;4956148;29;20063;-72
2021/09/24 11:17:41;;;;;;;1.20;0.70;;;26.10;47.80;;;;;;4938562;29;20039;-71
2021/09/24 11:20:26;;;;;;;2.42;1.00;;;26.30;45.90;;;;;;4953839;29;20400;-72
2021/09/24 11:22:51;;;;;;;1.48;0.77;;;26.30;45.30;;;;;;4955813;29;20026;-71
2021/09/24 11:25:17;;;;;;;1.13;0.85;;;26.30;44.60;;;;;;4956214;29;20031;-72
2021/09/24 11:27:47;;;;;;;2.30;1.00;;;26.70;44.90;;;;;;4955145;28;20027;-71
2021/09/24 11:30:23;;;;;;;1.63;0.90;;;26.90;44.40;;;;;;4938014;29;20042;-71
2021/09/24 11:32:52;;;;;;;2.72;0.70;;;27.30;44.10;;;;;;4955071;29;20031;-70
2021/09/24 11:35:28;;;;;;;1.15;0.80;;;28.10;43.30;;;;;;4955659;29;20053;-71
2021/09/24 11:38:12;;;;;;;0.88;0.80;;;29.20;41.90;;;;;;4955046;29;20038;-72
2021/09/24 11:40:38;;;;;;;0.98;0.88;;;30.80;42.30;;;;;;4934427;29;20039;-72
2021/09/24 11:43:04;;;;;;;0.98;0.80;;;32.50;36.90;;;;;;4939346;29;20031;-68
2021/09/24 11:45:31;;;;;;;1.58;1.10;;;34.10;34.20;;;;;;4903016;29;20256;-72
2021/09/24 11:48:09;;;;;;;1.00;0.90;;;35.50;31.50;;;;;;4876271;29;20940;-73
2021/09/24 11:50:36;;;;;;;8.70;6.93;;;36.70;30.50;;;;;;4892678;29;21098;-73
2021/09/24 11:53:04;;;;;;;2.50;1.95;;;37.80;27.70;;;;;;4889040;29;20027;-73
2021/09/24 11:55:34;;;;;;;1.90;1.70;;;38.40;26.80;;;;;;4893074;29;20122;-72
2021/09/24 11:58:06;;;;;;;;;;;38.80;26.20;;;;;;4903074;29;20523;-73
2021/09/24 12:00:41;;;;;;;1.88;1.00;;;39.70;27.20;;;;;;4897304;29;19926;-73
2021/09/24 12:03:09;;;;;;;1.02;0.88;;;40.00;23.70;;;;;;4876500;29;20071;-73
2021/09/24 12:05:36;;;;;;;1.33;0.88;;;40.70;23.90;;;;;;4883756;29;20245;-74
2021/09/24 12:08:02;;;;;;;0.90;0.90;;;40.90;22.80;;;;;;4850914;29;20665;-73
2021/09/24 12:10:30;;;;;;;1.58;1.00;;;40.80;21.20;;;;;;4906502;29;20530;-73
2021/09/24 12:13:11;;;;;;;2.08;1.80;;;40.80;21.80;;;;;;4949121;29;20692;-72
2021/09/24 12:15:49;;;;;;;2.20;1.30;;;41.10;22.70;;;;;;4951684;29;20028;-72
2021/09/24 12:18:15;;;;;;;1.20;1.10;;;40.80;22.10;;;;;;4939621;29;20027;-71
2021/09/24 12:20:41;;;;;;;1.42;1.33;;;40.60;20.80;;;;;;4947516;29;20036;-70
2021/09/24 12:23:07;;;;;;;1.30;1.20;;;41.20;21.60;;;;;;4943284;29;20024;-73
2021/09/24 12:25:32;;;;;;;1.33;1.15;;;42.00;21.40;;;;;;4946886;29;20082;-72
2021/09/24 12:28:12;;;;;;;1.40;1.30;;;42.30;19.80;;;;;;4949845;29;20031;-73
2021/09/24 12:30:43;;;;;;;1.38;1.27;;;42.10;20.20;;;;;;4940280;29;20047;-73
2021/09/24 12:33:13;;;;;;;1.20;1.10;;;42.20;19.90;;;;;;4949777;29;20050;-73
2021/09/24 12:35:39;;;;;;;1.73;1.20;;;42.50;19.70;;;;;;4953762;29;20036;-73
2021/09/24 12:38:22;;;;;;;1.60;1.50;;;42.60;19.10;;;;;;4954842;29;20062;-73
2021/09/24 12:41:04;;;;;;;2.33;1.55;;;42.80;18.90;;;;;;4953983;28;20122;-73
2021/09/24 12:43:34;;;;;;;1.40;1.30;;;43.10;18.90;;;;;;4953979;29;20027;-72
2021/09/24 12:45:59;;;;;;;1.65;1.55;;;43.60;19.00;;;;;;4953874;29;20527;-74
2021/09/24 12:48:34;;;;;;;1.60;1.50;;;43.50;18.20;;;;;;4954127;29;20031;-73